createdAt,value
2019-01-21T00:00:39.072Z,-4.54
2019-01-21T00:01:38.983Z,-4.51
2019-01-21T00:02:38.941Z,-4.56
2019-01-21T00:03:38.945Z,-4.67
2019-01-21T00:04:38.854Z,-4.67
2019-01-21T00:05:38.813Z,-4.68
2019-01-21T00:06:38.739Z,-4.67
2019-01-21T00:07:38.700Z,-4.74
2019-01-21T00:08:38.654Z,-4.67
2019-01-21T00:09:38.630Z,-4.65
2019-01-21T00:10:38.541Z,-4.72
2019-01-21T00:11:38.519Z,-4.71
2019-01-21T00:12:48.134Z,-4.78
2019-01-21T00:13:48.057Z,-4.86
2019-01-21T00:14:38.358Z,-4.85
2019-01-21T00:15:48.453Z,-4.81
2019-01-21T00:16:38.258Z,-4.75
2019-01-21T00:17:38.224Z,-4.79
2019-01-21T00:18:38.140Z,-4.86
2019-01-21T00:19:38.099Z,-4.90
2019-01-21T00:20:47.447Z,-4.96
2019-01-21T00:21:38.026Z,-4.83
2019-01-21T00:22:37.952Z,-4.83
2019-01-21T00:23:37.920Z,-4.83
2019-01-21T00:24:37.867Z,-4.96
2019-01-21T00:25:38.150Z,-4.93
2019-01-21T00:26:37.755Z,-4.85
2019-01-21T00:27:47.153Z,-4.92
2019-01-21T00:28:37.656Z,-4.86
2019-01-21T00:29:47.095Z,-4.87
2019-01-21T00:30:37.550Z,-4.93
2019-01-21T00:31:37.508Z,-4.89
2019-01-21T00:32:46.625Z,-4.83
2019-01-21T00:33:46.988Z,-4.79
2019-01-21T00:34:45.124Z,-5.00
2019-01-21T00:35:46.982Z,-4.85
2019-01-21T00:36:47.186Z,-4.90
2019-01-21T00:37:46.077Z,-4.99
2019-01-21T00:38:47.659Z,-4.83
2019-01-21T00:39:46.624Z,-4.90
2019-01-21T00:40:46.565Z,-4.92
2019-01-21T00:41:46.755Z,-4.93
2019-01-21T00:42:45.919Z,-4.86
2019-01-21T00:43:46.893Z,-4.92
2019-01-21T00:44:46.045Z,-4.96
2019-01-21T00:45:46.295Z,-4.81
2019-01-21T00:46:36.773Z,-4.95
2019-01-21T00:47:36.697Z,-4.96
2019-01-21T00:48:36.793Z,-4.87
2019-01-21T00:49:36.607Z,-4.96
2019-01-21T00:50:36.535Z,-5.00
2019-01-21T00:51:36.490Z,-4.99
2019-01-21T00:52:36.449Z,-4.93
2019-01-21T00:53:36.408Z,-4.86
2019-01-21T00:54:45.376Z,-4.95
2019-01-21T00:55:36.313Z,-4.99
2019-01-21T00:56:45.797Z,-4.89
2019-01-21T00:57:36.186Z,-4.93
2019-01-21T00:58:45.157Z,-5.00
2019-01-21T00:59:46.148Z,-5.00
2019-01-21T01:00:45.795Z,-4.92
2019-01-21T01:01:45.583Z,-5.08
2019-01-21T01:02:45.323Z,-5.03
2019-01-21T01:03:45.389Z,-5.07
2019-01-21T01:04:35.876Z,-5.10
2019-01-21T01:05:35.791Z,-5.13
2019-01-21T01:06:35.731Z,-5.19
2019-01-21T01:07:35.721Z,-5.14
2019-01-21T01:08:35.654Z,-5.11
2019-01-21T01:09:35.632Z,-5.17
2019-01-21T01:10:35.543Z,-5.11
2019-01-21T01:11:35.510Z,-5.18
2019-01-21T01:12:35.784Z,-5.26
2019-01-21T01:13:35.383Z,-5.25
2019-01-21T01:14:35.363Z,-5.25
2019-01-21T01:15:35.301Z,-5.19
2019-01-21T01:16:35.243Z,-5.27
2019-01-21T01:17:37.243Z,-5.23
2019-01-21T01:18:35.154Z,-5.22
2019-01-21T01:19:35.089Z,-5.18
2019-01-21T01:20:35.065Z,-5.11
2019-01-21T01:21:34.991Z,-5.10
2019-01-21T01:22:34.949Z,-5.23
2019-01-21T01:23:34.897Z,-5.25
2019-01-21T01:24:34.838Z,-5.14
2019-01-21T01:25:34.830Z,-5.10
2019-01-21T01:26:34.739Z,-5.13
2019-01-21T01:27:34.728Z,-5.17
2019-01-21T01:28:34.653Z,-5.14
2019-01-21T01:29:34.612Z,-5.19
2019-01-21T01:30:34.571Z,-5.30
2019-01-21T01:31:34.510Z,-5.25
2019-01-21T01:32:34.471Z,-5.33
2019-01-21T01:33:34.393Z,-5.37
2019-01-21T01:34:34.336Z,-5.30
2019-01-21T01:35:34.327Z,-5.35
2019-01-21T01:36:34.272Z,-5.27
2019-01-21T01:37:34.199Z,-5.27
2019-01-21T01:38:34.144Z,-5.35
2019-01-21T01:39:34.105Z,-5.25
2019-01-21T01:40:34.062Z,-5.10
2019-01-21T01:41:34.028Z,-5.04
2019-01-21T01:42:33.951Z,-4.93
2019-01-21T01:43:43.331Z,-4.89
2019-01-21T01:44:33.852Z,-4.85
2019-01-21T01:45:33.798Z,-4.96
2019-01-21T01:46:33.777Z,-4.95
2019-01-21T01:47:33.725Z,-4.96
2019-01-21T01:48:34.007Z,-4.86
2019-01-21T01:49:33.593Z,-4.89
2019-01-21T01:50:33.548Z,-4.90
2019-01-21T01:51:33.537Z,-4.93
2019-01-21T01:52:33.452Z,-4.93
2019-01-21T01:53:33.402Z,-5.00
2019-01-21T01:54:33.354Z,-4.89
2019-01-21T01:55:33.311Z,-4.96
2019-01-21T01:56:33.262Z,-4.95
2019-01-21T01:57:33.226Z,-5.00
2019-01-21T01:58:33.149Z,-5.11
2019-01-21T01:59:33.096Z,-5.18
2019-01-21T02:00:33.058Z,-5.14
2019-01-21T02:01:33.003Z,-5.14
2019-01-21T02:02:32.980Z,-5.03
2019-01-21T02:03:32.913Z,-5.06
2019-01-21T02:04:32.847Z,-5.10
2019-01-21T02:05:32.809Z,-5.11
2019-01-21T02:06:32.756Z,-5.13
2019-01-21T02:07:32.709Z,-5.07
2019-01-21T02:08:32.678Z,-5.08
2019-01-21T02:09:32.611Z,-5.11
2019-01-21T02:10:32.571Z,-5.13
2019-01-21T02:11:32.503Z,-5.18
2019-01-21T02:12:32.452Z,-5.13
2019-01-21T02:13:32.419Z,-5.18
2019-01-21T02:14:32.371Z,-5.37
2019-01-21T02:15:32.300Z,-5.18
2019-01-21T02:16:32.254Z,-5.22
2019-01-21T02:17:32.203Z,-5.25
2019-01-21T02:18:32.190Z,-5.25
2019-01-21T02:19:32.117Z,-5.23
2019-01-21T02:20:32.072Z,-5.23
2019-01-21T02:21:32.002Z,-5.22
2019-01-21T02:22:31.958Z,-5.25
2019-01-21T02:23:31.906Z,-5.23
2019-01-21T02:24:31.872Z,-5.19
2019-01-21T02:25:31.806Z,-5.25
2019-01-21T02:26:31.778Z,-5.32
2019-01-21T02:27:31.723Z,-5.39
2019-01-21T02:28:31.665Z,-5.44
2019-01-21T02:29:31.641Z,-5.39
2019-01-21T02:30:31.560Z,-5.32
2019-01-21T02:31:31.510Z,-5.36
2019-01-21T02:32:31.452Z,-5.27
2019-01-21T02:33:31.422Z,-5.30
2019-01-21T02:34:31.365Z,-5.23
2019-01-21T02:35:31.327Z,-5.25
2019-01-21T02:36:31.245Z,-5.26
2019-01-21T02:37:31.239Z,-5.26
2019-01-21T02:38:31.148Z,-5.26
2019-01-21T02:39:31.114Z,-5.33
2019-01-21T02:40:31.099Z,-5.44
2019-01-21T02:41:31.029Z,-5.35
2019-01-21T02:42:30.961Z,-5.39
2019-01-21T02:43:30.911Z,-5.43
2019-01-21T02:44:30.879Z,-5.35
2019-01-21T02:45:30.821Z,-5.39
2019-01-21T02:46:30.786Z,-5.35
2019-01-21T02:47:30.708Z,-5.47
2019-01-21T02:48:30.660Z,-5.46
2019-01-21T02:49:30.617Z,-5.47
2019-01-21T02:50:30.550Z,-5.44
2019-01-21T02:51:30.514Z,-5.48
2019-01-21T02:52:30.499Z,-5.47
2019-01-21T02:53:30.412Z,-5.46
2019-01-21T02:54:30.370Z,-5.50
2019-01-21T02:55:30.325Z,-5.36
2019-01-21T02:56:30.281Z,-5.33
2019-01-21T02:57:30.239Z,-5.35
2019-01-21T02:58:30.173Z,-5.30
2019-01-21T02:59:30.118Z,-5.36
2019-01-21T03:00:30.075Z,-5.44
2019-01-21T03:01:30.026Z,-5.47
2019-01-21T03:02:29.996Z,-5.46
2019-01-21T03:03:29.925Z,-5.50
2019-01-21T03:04:29.862Z,-5.35
2019-01-21T03:05:29.809Z,-5.39
2019-01-21T03:06:29.770Z,-5.59
2019-01-21T03:07:29.728Z,-5.66
2019-01-21T03:08:29.687Z,-5.55
2019-01-21T03:09:29.610Z,-5.66
2019-01-21T03:10:29.567Z,-5.57
2019-01-21T03:11:29.529Z,-5.48
2019-01-21T03:12:29.476Z,-5.55
2019-01-21T03:13:29.445Z,-5.55
2019-01-21T03:14:29.373Z,-5.62
2019-01-21T03:15:29.313Z,-5.65
2019-01-21T03:16:29.278Z,-5.72
2019-01-21T03:17:29.216Z,-5.68
2019-01-21T03:18:29.183Z,-5.64
2019-01-21T03:19:29.146Z,-5.68
2019-01-21T03:20:29.080Z,-5.79
2019-01-21T03:21:29.028Z,-5.75
2019-01-21T03:22:28.962Z,-5.79
2019-01-21T03:23:28.933Z,-5.86
2019-01-21T03:24:28.863Z,-5.86
2019-01-21T03:25:28.845Z,-5.87
2019-01-21T03:26:28.761Z,-5.86
2019-01-21T03:27:28.714Z,-5.90
2019-01-21T03:28:28.666Z,-5.90
2019-01-21T03:29:28.649Z,-5.89
2019-01-21T03:30:28.585Z,-5.97
2019-01-21T03:31:28.512Z,-5.87
2019-01-21T03:32:28.491Z,-5.83
2019-01-21T03:33:28.435Z,-5.83
2019-01-21T03:34:28.378Z,-5.82
2019-01-21T03:35:28.330Z,-5.86
2019-01-21T03:36:28.262Z,-5.84
2019-01-21T03:37:28.265Z,-5.89
2019-01-21T03:38:28.170Z,-5.87
2019-01-21T03:39:28.113Z,-5.75
2019-01-21T03:40:28.097Z,-5.71
2019-01-21T03:41:28.029Z,-5.80
2019-01-21T03:42:27.954Z,-5.61
2019-01-21T03:43:27.937Z,-5.74
2019-01-21T03:44:27.875Z,-5.68
2019-01-21T03:45:27.878Z,-5.80
2019-01-21T03:46:27.798Z,-5.76
2019-01-21T03:47:27.713Z,-5.84
2019-01-21T03:48:27.686Z,-5.83
2019-01-21T03:49:27.626Z,-5.89
2019-01-21T03:50:27.582Z,-5.76
2019-01-21T03:51:27.560Z,-5.90
2019-01-21T03:52:27.493Z,-5.86
2019-01-21T03:53:27.426Z,-5.79
2019-01-21T03:54:27.366Z,-5.92
2019-01-21T03:55:27.332Z,-5.80
2019-01-21T03:56:27.266Z,-5.83
2019-01-21T03:57:27.259Z,-5.74
2019-01-21T03:58:27.164Z,-5.72
2019-01-21T03:59:27.131Z,-5.68
2019-01-21T04:00:27.061Z,-5.65
2019-01-21T04:01:27.028Z,-5.68
2019-01-21T04:02:27.065Z,-5.68
2019-01-21T04:03:26.925Z,-5.68
2019-01-21T04:04:26.867Z,-5.68
2019-01-21T04:05:26.822Z,-5.65
2019-01-21T04:06:26.777Z,-5.68
2019-01-21T04:07:26.746Z,-5.71
2019-01-21T04:08:26.696Z,-5.72
2019-01-21T04:09:26.628Z,-5.68
2019-01-21T04:10:26.591Z,-5.80
2019-01-21T04:11:26.526Z,-5.75
2019-01-21T04:12:26.508Z,-5.79
2019-01-21T04:13:26.414Z,-5.80
2019-01-21T04:14:26.364Z,-5.84
2019-01-21T04:15:26.311Z,-5.89
2019-01-21T04:16:26.276Z,-5.87
2019-01-21T04:17:26.218Z,-5.80
2019-01-21T04:18:26.194Z,-5.82
2019-01-21T04:19:26.111Z,-5.83
2019-01-21T04:20:26.062Z,-5.74
2019-01-21T04:21:26.017Z,-5.72
2019-01-21T04:22:25.954Z,-5.66
2019-01-21T04:23:25.958Z,-5.66
2019-01-21T04:24:25.873Z,-5.51
2019-01-21T04:25:25.811Z,-5.35
2019-01-21T04:26:25.779Z,-5.39
2019-01-21T04:27:25.718Z,-5.33
2019-01-21T04:28:25.689Z,-5.26
2019-01-21T04:29:25.697Z,-5.25
2019-01-21T04:30:25.600Z,-5.23
2019-01-21T04:31:26.316Z,-5.18
2019-01-21T04:32:25.460Z,-5.27
2019-01-21T04:33:25.421Z,-5.29
2019-01-21T04:34:25.369Z,-5.30
2019-01-21T04:35:25.363Z,-5.30
2019-01-21T04:36:25.281Z,-5.36
2019-01-21T04:37:25.223Z,-5.41
2019-01-21T04:38:25.180Z,-5.35
2019-01-21T04:39:25.124Z,-5.36
2019-01-21T04:40:25.110Z,-5.43
2019-01-21T04:41:25.049Z,-5.48
2019-01-21T04:42:24.973Z,-5.50
2019-01-21T04:43:24.928Z,-5.51
2019-01-21T04:44:24.878Z,-5.68
2019-01-21T04:45:24.861Z,-5.64
2019-01-21T04:46:24.763Z,-5.66
2019-01-21T04:47:24.724Z,-5.68
2019-01-21T04:48:32.774Z,-5.59
2019-01-21T04:49:24.662Z,-5.64
2019-01-21T04:50:24.585Z,-5.61
2019-01-21T04:51:24.556Z,-5.54
2019-01-21T04:52:24.478Z,-5.54
2019-01-21T04:53:24.444Z,-5.55
2019-01-21T04:54:24.373Z,-5.61
2019-01-21T04:55:24.347Z,-5.50
2019-01-21T04:56:24.315Z,-5.54
2019-01-21T04:57:24.217Z,-5.61
2019-01-21T04:58:24.229Z,-5.65
2019-01-21T04:59:24.131Z,-5.53
2019-01-21T05:00:24.093Z,-5.55
2019-01-21T05:01:24.048Z,-5.46
2019-01-21T05:02:24.013Z,-5.43
2019-01-21T05:03:23.932Z,-5.47
2019-01-21T05:04:23.870Z,-5.54
2019-01-21T05:05:23.810Z,-5.62
2019-01-21T05:06:23.791Z,-5.65
2019-01-21T05:07:23.723Z,-5.62
2019-01-21T05:08:23.684Z,-5.68
2019-01-21T05:09:23.637Z,-5.62
2019-01-21T05:10:23.580Z,-5.64
2019-01-21T05:11:23.552Z,-5.62
2019-01-21T05:12:23.517Z,-5.51
2019-01-21T05:13:23.440Z,-5.48
2019-01-21T05:14:23.420Z,-5.35
2019-01-21T05:15:23.324Z,-5.41
2019-01-21T05:16:23.273Z,-5.30
2019-01-21T05:17:23.267Z,-5.39
2019-01-21T05:18:23.200Z,-5.30
2019-01-21T05:19:23.146Z,-5.36
2019-01-21T05:20:23.093Z,-5.36
2019-01-21T05:21:23.034Z,-5.44
2019-01-21T05:22:22.988Z,-5.39
2019-01-21T05:23:22.977Z,-5.48
2019-01-21T05:24:22.889Z,-5.54
2019-01-21T05:25:22.825Z,-5.62
2019-01-21T05:26:22.788Z,-5.65
2019-01-21T05:27:22.724Z,-5.62
2019-01-21T05:28:22.712Z,-5.65
2019-01-21T05:29:22.625Z,-5.71
2019-01-21T05:30:22.584Z,-5.65
2019-01-21T05:31:22.530Z,-5.74
2019-01-21T05:32:22.468Z,-5.74
2019-01-21T05:33:22.451Z,-5.76
2019-01-21T05:34:22.410Z,-5.83
2019-01-21T05:35:22.329Z,-5.89
2019-01-21T05:36:23.279Z,-5.86
2019-01-21T05:37:22.231Z,-5.83
2019-01-21T05:38:22.224Z,-5.84
2019-01-21T05:39:22.131Z,-5.82
2019-01-21T05:40:22.082Z,-5.71
2019-01-21T05:41:22.066Z,-5.72
2019-01-21T05:42:22.015Z,-5.64
2019-01-21T05:43:21.972Z,-5.69
2019-01-21T05:44:21.879Z,-5.66
2019-01-21T05:45:21.819Z,-5.74
2019-01-21T05:46:21.792Z,-5.80
2019-01-21T05:47:21.740Z,-5.69
2019-01-21T05:48:21.720Z,-5.71
2019-01-21T05:49:21.669Z,-5.72
2019-01-21T05:50:21.587Z,-5.69
2019-01-21T05:51:21.553Z,-5.66
2019-01-21T05:52:21.483Z,-5.69
2019-01-21T05:53:21.430Z,-5.74
2019-01-21T05:54:21.366Z,-5.74
2019-01-21T05:55:21.324Z,-5.76
2019-01-21T05:56:21.290Z,-5.71
2019-01-21T05:57:21.253Z,-5.75
2019-01-21T05:58:21.211Z,-5.83
2019-01-21T05:59:21.124Z,-5.79
2019-01-21T06:00:21.120Z,-5.92
2019-01-21T06:01:21.026Z,-5.92
2019-01-21T06:02:20.983Z,-5.89
2019-01-21T06:03:20.919Z,-5.83
2019-01-21T06:04:20.900Z,-5.86
2019-01-21T06:05:30.162Z,-5.83
2019-01-21T06:06:30.202Z,-5.80
2019-01-21T06:07:20.749Z,-5.74
2019-01-21T06:08:20.662Z,-5.79
2019-01-21T06:09:20.617Z,-5.74
2019-01-21T06:10:20.556Z,-5.76
2019-01-21T06:11:20.516Z,-5.76
2019-01-21T06:12:20.465Z,-5.83
2019-01-21T06:13:20.445Z,-5.82
2019-01-21T06:14:20.365Z,-5.76
2019-01-21T06:15:20.311Z,-5.89
2019-01-21T06:16:20.268Z,-5.92
2019-01-21T06:17:20.248Z,-5.89
2019-01-21T06:18:20.169Z,-5.84
2019-01-21T06:19:20.123Z,-5.83
2019-01-21T06:20:20.091Z,-5.72
2019-01-21T06:21:20.045Z,-5.69
2019-01-21T06:22:19.999Z,-5.62
2019-01-21T06:23:19.927Z,-5.65
2019-01-21T06:24:19.860Z,-5.44
2019-01-21T06:25:19.850Z,-5.48
2019-01-21T06:26:19.751Z,-5.44
2019-01-21T06:27:19.707Z,-5.43
2019-01-21T06:28:19.706Z,-5.41
2019-01-21T06:29:19.612Z,-5.36
2019-01-21T06:30:19.591Z,-5.46
2019-01-21T06:31:19.519Z,-5.51
2019-01-21T06:32:19.496Z,-5.48
2019-01-21T06:33:19.446Z,-5.46
2019-01-21T06:34:19.393Z,-5.51
2019-01-21T06:35:19.329Z,-5.65
2019-01-21T06:36:19.288Z,-5.64
2019-01-21T06:37:19.255Z,-5.57
2019-01-21T06:38:19.210Z,-5.64
2019-01-21T06:39:19.130Z,-5.72
2019-01-21T06:40:19.062Z,-5.72
2019-01-21T06:41:19.034Z,-5.74
2019-01-21T06:42:18.973Z,-5.74
2019-01-21T06:43:18.939Z,-5.72
2019-01-21T06:44:18.890Z,-5.66
2019-01-21T06:45:18.829Z,-5.59
2019-01-21T06:46:18.757Z,-5.51
2019-01-21T06:47:18.718Z,-5.46
2019-01-21T06:48:18.682Z,-5.47
2019-01-21T06:49:18.653Z,-5.46
2019-01-21T06:50:18.599Z,-5.36
2019-01-21T06:51:18.549Z,-5.35
2019-01-21T06:52:18.456Z,-5.43
2019-01-21T06:53:18.423Z,-5.27
2019-01-21T06:54:18.406Z,-5.29
2019-01-21T06:55:18.369Z,-5.35
2019-01-21T06:56:18.287Z,-5.32
2019-01-21T06:57:18.214Z,-5.41
2019-01-21T06:58:18.165Z,-5.36
2019-01-21T06:59:18.115Z,-5.36
2019-01-21T07:00:18.082Z,-5.47
2019-01-21T07:01:18.056Z,-5.48
2019-01-21T07:02:17.986Z,-5.53
2019-01-21T07:03:17.931Z,-5.61
2019-01-21T07:04:17.878Z,-5.59
2019-01-21T07:05:17.846Z,-4.72
2019-01-21T07:06:17.791Z,-4.11
2019-01-21T07:07:17.733Z,-3.78
2019-01-21T07:08:17.668Z,-3.42
2019-01-21T07:09:17.629Z,-3.41
2019-01-21T07:10:17.600Z,-3.17
2019-01-21T07:11:17.560Z,-3.12
2019-01-21T07:12:17.490Z,-3.35
2019-01-21T07:13:17.440Z,-3.53
2019-01-21T07:14:17.362Z,-3.31
2019-01-21T07:15:17.308Z,-3.49
2019-01-21T07:16:17.299Z,-3.35
2019-01-21T07:17:17.248Z,-2.99
2019-01-21T07:18:17.189Z,-3.09
2019-01-21T07:19:17.131Z,-3.00
2019-01-21T07:20:17.099Z,-2.88
2019-01-21T07:21:17.034Z,-2.88
2019-01-21T07:22:17.000Z,-2.86
2019-01-21T07:23:16.942Z,-2.96
2019-01-21T07:24:16.861Z,-2.74
2019-01-21T07:25:16.809Z,-2.73
2019-01-21T07:26:16.759Z,-2.79
2019-01-21T07:27:16.711Z,-2.61
2019-01-21T07:28:16.686Z,-2.55
2019-01-21T07:29:16.604Z,-2.73
2019-01-21T07:30:16.565Z,-2.82
2019-01-21T07:31:16.526Z,-2.86
2019-01-21T07:32:16.498Z,-2.88
2019-01-21T07:33:17.814Z,-2.89
2019-01-21T07:34:16.375Z,-2.89
2019-01-21T07:35:16.321Z,-3.06
2019-01-21T07:36:16.270Z,-3.12
2019-01-21T07:37:16.230Z,-3.05
2019-01-21T07:38:16.207Z,-2.94
2019-01-21T07:39:16.181Z,-3.05
2019-01-21T07:40:16.084Z,-3.06
2019-01-21T07:41:16.017Z,-3.06
2019-01-21T07:42:15.979Z,-3.18
2019-01-21T07:43:15.949Z,-3.15
2019-01-21T07:44:15.886Z,-3.03
2019-01-21T07:45:15.830Z,-2.73
2019-01-21T07:46:15.777Z,-2.60
2019-01-21T07:47:15.741Z,-2.49
2019-01-21T07:48:15.696Z,-2.48
2019-01-21T07:49:17.647Z,-2.50
2019-01-21T07:50:15.578Z,-2.55
2019-01-21T07:51:15.519Z,-2.66
2019-01-21T07:52:15.499Z,-2.61
2019-01-21T07:53:15.451Z,-2.61
2019-01-21T07:54:15.373Z,-2.60
2019-01-21T07:55:15.336Z,-2.73
2019-01-21T07:56:15.289Z,-2.66
2019-01-21T07:57:15.237Z,-2.74
2019-01-21T07:58:15.233Z,-2.78
2019-01-21T07:59:15.138Z,-2.74
2019-01-21T08:00:15.115Z,-2.78
2019-01-21T08:01:15.045Z,-2.74
2019-01-21T08:02:15.013Z,-2.71
2019-01-21T08:03:14.969Z,-2.74
2019-01-21T08:04:14.878Z,-2.74
2019-01-21T08:05:14.843Z,-2.77
2019-01-21T08:06:14.795Z,-2.63
2019-01-21T08:07:14.758Z,-2.67
2019-01-21T08:08:14.749Z,-2.55
2019-01-21T08:09:14.671Z,-2.67
2019-01-21T08:10:14.626Z,-2.63
2019-01-21T08:11:14.549Z,-2.58
2019-01-21T08:12:14.535Z,-2.43
2019-01-21T08:13:14.461Z,-2.39
2019-01-21T08:14:14.500Z,-2.32
2019-01-21T08:15:14.371Z,-2.18
2019-01-21T08:16:14.350Z,-2.03
2019-01-21T08:17:14.254Z,-1.74
2019-01-21T08:18:24.161Z,-1.48
2019-01-21T08:19:14.252Z,-1.31
2019-01-21T08:20:14.108Z,-1.01
2019-01-21T08:21:14.108Z,-0.89
2019-01-21T08:22:14.013Z,-0.70
2019-01-21T08:23:13.963Z,-0.65
2019-01-21T08:24:13.900Z,-0.62
2019-01-21T08:25:13.912Z,-0.64
2019-01-21T08:26:13.852Z,-0.58
2019-01-21T08:27:13.767Z,-0.65
2019-01-21T08:28:13.716Z,-0.52
2019-01-21T08:29:13.702Z,-0.51
2019-01-21T08:30:13.605Z,-0.40
2019-01-21T08:31:13.589Z,-0.34
2019-01-21T08:32:13.521Z,-0.25
2019-01-21T08:33:13.467Z,-0.25
2019-01-21T08:34:13.450Z,-0.08
2019-01-21T08:35:13.411Z,0.03
2019-01-21T08:36:13.370Z,0.13
2019-01-21T08:37:13.317Z,0.36
2019-01-21T08:38:13.291Z,0.69
2019-01-21T08:39:13.210Z,1.00
2019-01-21T08:40:13.174Z,0.97
2019-01-21T08:41:13.103Z,0.88
2019-01-21T08:42:13.052Z,0.91
2019-01-21T08:43:13.043Z,0.78
2019-01-21T08:44:12.978Z,0.75
2019-01-21T08:45:12.946Z,0.87
2019-01-21T08:46:12.888Z,0.96
2019-01-21T08:47:12.847Z,0.93
2019-01-21T08:48:12.797Z,0.88
2019-01-21T08:49:12.746Z,0.91
2019-01-21T08:50:12.732Z,1.05
2019-01-21T08:51:12.650Z,1.09
2019-01-21T08:52:12.663Z,1.16
2019-01-21T08:53:12.564Z,1.27
2019-01-21T08:54:12.528Z,1.48
2019-01-21T08:55:12.474Z,1.30
2019-01-21T08:56:12.451Z,1.79
2019-01-21T08:57:12.445Z,1.99
2019-01-21T08:58:12.355Z,2.12
2019-01-21T08:59:12.325Z,1.51
2019-01-21T09:00:12.259Z,1.40
2019-01-21T09:01:12.235Z,1.58
2019-01-21T09:02:12.201Z,1.47
2019-01-21T09:03:14.538Z,1.32
2019-01-21T09:04:12.086Z,1.51
2019-01-21T09:05:12.060Z,1.68
2019-01-21T09:06:12.066Z,1.44
2019-01-21T09:07:11.997Z,1.41
2019-01-21T09:08:11.963Z,1.33
2019-01-21T09:09:11.897Z,1.50
2019-01-21T09:10:11.848Z,1.55
2019-01-21T09:11:11.789Z,1.51
2019-01-21T09:12:11.742Z,1.29
2019-01-21T09:13:11.722Z,1.33
2019-01-21T09:14:11.687Z,1.40
2019-01-21T09:15:11.619Z,1.14
2019-01-21T09:16:11.559Z,0.83
2019-01-21T09:17:11.535Z,1.15
2019-01-21T09:18:11.523Z,1.41
2019-01-21T09:19:11.441Z,1.37
2019-01-21T09:20:11.444Z,1.55
2019-01-21T09:21:11.385Z,2.02
2019-01-21T09:22:11.345Z,2.07
2019-01-21T09:23:11.283Z,1.76
2019-01-21T09:24:11.296Z,1.91
2019-01-21T09:25:11.209Z,1.72
2019-01-21T09:26:11.152Z,1.86
2019-01-21T09:27:11.106Z,2.02
2019-01-21T09:28:11.057Z,2.09
2019-01-21T09:29:11.044Z,1.60
2019-01-21T09:30:10.988Z,1.55
2019-01-21T09:31:10.946Z,1.98
2019-01-21T09:32:10.890Z,1.93
2019-01-21T09:33:10.861Z,2.06
2019-01-21T09:34:10.847Z,2.14
2019-01-21T09:35:10.787Z,1.48
2019-01-21T09:36:10.714Z,1.48
2019-01-21T09:37:10.677Z,1.86
2019-01-21T09:38:10.641Z,2.14
2019-01-21T09:39:10.579Z,2.06
2019-01-21T09:40:10.583Z,2.05
2019-01-21T09:41:10.534Z,2.03
2019-01-21T09:42:10.491Z,2.27
2019-01-21T09:43:10.465Z,2.46
2019-01-21T09:44:10.394Z,2.21
2019-01-21T09:45:10.330Z,1.88
2019-01-21T09:46:10.290Z,1.98
2019-01-21T09:47:10.245Z,1.66
2019-01-21T09:48:10.224Z,2.03
2019-01-21T09:49:10.202Z,2.09
2019-01-21T09:50:10.202Z,2.07
2019-01-21T09:51:10.082Z,1.69
2019-01-21T09:52:10.046Z,2.09
2019-01-21T09:53:09.992Z,2.34
2019-01-21T09:54:09.948Z,2.60
2019-01-21T09:55:09.931Z,2.95
2019-01-21T09:56:09.900Z,2.53
2019-01-21T09:57:09.894Z,2.60
2019-01-21T09:58:09.870Z,2.67
2019-01-21T09:59:09.788Z,2.67
2019-01-21T10:00:09.728Z,2.71
2019-01-21T10:01:09.736Z,2.49
2019-01-21T10:02:09.655Z,2.38
2019-01-21T10:03:09.603Z,2.06
2019-01-21T10:04:09.589Z,2.20
2019-01-21T10:05:09.627Z,2.09
2019-01-21T10:06:09.462Z,2.42
2019-01-21T10:07:09.439Z,2.52
2019-01-21T10:08:09.433Z,2.42
2019-01-21T10:09:09.414Z,2.67
2019-01-21T10:10:09.342Z,2.72
2019-01-21T10:11:09.251Z,2.75
2019-01-21T10:12:09.223Z,2.59
2019-01-21T10:13:09.228Z,2.84
2019-01-21T10:14:09.157Z,3.11
2019-01-21T10:15:09.119Z,3.24
2019-01-21T10:16:09.097Z,3.42
2019-01-21T10:17:09.097Z,3.21
2019-01-21T10:18:08.996Z,3.23
2019-01-21T10:19:08.937Z,3.43
2019-01-21T10:20:08.885Z,3.86
2019-01-21T10:21:08.868Z,3.87
2019-01-21T10:22:08.803Z,4.15
2019-01-21T10:23:08.751Z,3.79
2019-01-21T10:24:08.721Z,2.87
2019-01-21T10:25:08.695Z,2.78
2019-01-21T10:26:08.658Z,2.93
2019-01-21T10:27:08.598Z,3.00
2019-01-21T10:28:08.546Z,2.60
2019-01-21T10:29:08.524Z,2.75
2019-01-21T10:30:08.498Z,3.08
2019-01-21T10:31:08.451Z,2.97
2019-01-21T10:32:08.384Z,3.24
2019-01-21T10:33:08.349Z,3.08
2019-01-21T10:34:08.293Z,3.00
2019-01-21T10:35:08.262Z,2.84
2019-01-21T10:36:08.249Z,2.66
2019-01-21T10:37:08.170Z,2.79
2019-01-21T10:38:08.142Z,2.97
2019-01-21T10:39:08.103Z,3.05
2019-01-21T10:40:08.262Z,2.96
2019-01-21T10:41:08.026Z,2.52
2019-01-21T10:42:07.992Z,2.20
2019-01-21T10:43:07.934Z,2.35
2019-01-21T10:44:07.903Z,2.35
2019-01-21T10:45:07.848Z,2.21
2019-01-21T10:46:07.841Z,2.72
2019-01-21T10:47:07.756Z,2.75
2019-01-21T10:48:07.734Z,2.79
2019-01-21T10:49:07.686Z,2.81
2019-01-21T10:50:07.654Z,3.03
2019-01-21T10:51:07.584Z,3.06
2019-01-21T10:52:07.580Z,2.99
2019-01-21T10:53:07.512Z,3.10
2019-01-21T10:54:07.465Z,2.77
2019-01-21T10:55:07.440Z,2.81
2019-01-21T10:56:07.383Z,2.82
2019-01-21T10:57:07.338Z,3.06
2019-01-21T10:58:07.315Z,3.06
2019-01-21T10:59:07.252Z,2.89
2019-01-21T11:00:07.221Z,2.97
2019-01-21T11:01:07.194Z,3.24
2019-01-21T11:02:07.155Z,3.69
2019-01-21T11:03:07.093Z,3.96
2019-01-21T11:04:07.059Z,3.93
2019-01-21T11:05:07.002Z,3.40
2019-01-21T11:06:07.005Z,3.06
2019-01-21T11:07:06.960Z,3.29
2019-01-21T11:08:07.968Z,3.48
2019-01-21T11:09:06.881Z,3.47
2019-01-21T11:10:06.802Z,3.83
2019-01-21T11:11:06.754Z,3.86
2019-01-21T11:12:06.715Z,3.79
2019-01-21T11:13:06.702Z,3.97
2019-01-21T11:14:06.630Z,4.23
2019-01-21T11:15:06.601Z,3.96
2019-01-21T11:16:06.538Z,3.80
2019-01-21T11:17:06.530Z,3.24
2019-01-21T11:18:06.494Z,3.11
2019-01-21T11:19:06.455Z,3.61
2019-01-21T11:20:06.399Z,3.73
2019-01-21T11:21:06.362Z,3.88
2019-01-21T11:22:06.299Z,4.05
2019-01-21T11:23:06.432Z,4.15
2019-01-21T11:24:06.236Z,4.09
2019-01-21T11:25:06.203Z,4.00
2019-01-21T11:26:06.151Z,4.12
2019-01-21T11:27:06.087Z,4.32
2019-01-21T11:28:06.092Z,3.93
2019-01-21T11:29:06.005Z,4.00
2019-01-21T11:30:05.962Z,4.22
2019-01-21T11:31:05.927Z,3.80
2019-01-21T11:32:05.907Z,3.48
2019-01-21T11:33:05.851Z,3.72
2019-01-21T11:34:05.830Z,3.90
2019-01-21T11:35:05.760Z,3.66
2019-01-21T11:36:05.708Z,3.60
2019-01-21T11:37:05.684Z,3.60
2019-01-21T11:38:05.643Z,3.58
2019-01-21T11:39:05.635Z,3.60
2019-01-21T11:40:05.567Z,3.68
2019-01-21T11:41:05.528Z,3.69
2019-01-21T11:42:05.473Z,3.52
2019-01-21T11:43:05.480Z,3.57
2019-01-21T11:44:05.381Z,3.61
2019-01-21T11:45:05.362Z,3.57
2019-01-21T11:46:05.326Z,3.61
2019-01-21T11:47:05.262Z,3.80
2019-01-21T11:48:05.219Z,4.04
2019-01-21T11:49:05.207Z,4.14
2019-01-21T11:50:10.462Z,4.04
2019-01-21T11:51:05.148Z,3.97
2019-01-21T11:52:05.121Z,3.42
2019-01-21T11:53:05.048Z,3.28
2019-01-21T11:54:04.975Z,3.43
2019-01-21T11:55:04.965Z,3.35
2019-01-21T11:56:04.882Z,3.06
2019-01-21T11:57:04.988Z,3.05
2019-01-21T11:58:04.824Z,2.97
2019-01-21T11:59:04.761Z,3.06
2019-01-21T12:00:04.744Z,3.00
2019-01-21T12:01:04.746Z,2.79
2019-01-21T12:02:04.660Z,2.63
2019-01-21T12:03:04.590Z,2.79
2019-01-21T12:04:04.578Z,2.42
2019-01-21T12:05:04.566Z,2.78
2019-01-21T12:06:04.549Z,2.84
2019-01-21T12:07:04.502Z,2.74
2019-01-21T12:08:04.440Z,2.30
2019-01-21T12:09:04.448Z,2.35
2019-01-21T12:10:04.461Z,2.39
2019-01-21T12:11:04.486Z,2.66
2019-01-21T12:12:04.291Z,2.61
2019-01-21T12:13:04.176Z,2.84
2019-01-21T12:14:04.205Z,3.05
2019-01-21T12:15:04.156Z,3.15
2019-01-21T12:16:04.153Z,3.24
2019-01-21T12:17:04.066Z,3.43
2019-01-21T12:18:03.998Z,3.28
2019-01-21T12:19:03.943Z,2.89
2019-01-21T12:20:03.964Z,2.60
2019-01-21T12:21:03.918Z,2.69
2019-01-21T12:22:04.010Z,2.61
2019-01-21T12:23:03.804Z,2.64
2019-01-21T12:24:03.743Z,2.78
2019-01-21T12:25:03.718Z,2.92
2019-01-21T12:26:03.661Z,2.99
2019-01-21T12:27:03.618Z,2.89
2019-01-21T12:28:03.685Z,2.79
2019-01-21T12:29:03.512Z,2.74
2019-01-21T12:30:03.496Z,2.84
2019-01-21T12:31:03.458Z,2.93
2019-01-21T12:32:03.389Z,2.93
2019-01-21T12:33:03.498Z,3.00
2019-01-21T12:34:03.313Z,3.00
2019-01-21T12:35:03.305Z,2.87
2019-01-21T12:36:03.308Z,2.82
2019-01-21T12:37:11.915Z,2.81
2019-01-21T12:38:12.439Z,2.84
2019-01-21T12:39:12.781Z,2.77
2019-01-21T12:40:03.248Z,2.64
2019-01-21T12:41:03.098Z,2.67
2019-01-21T12:42:03.807Z,2.60
2019-01-21T12:43:03.730Z,2.81
2019-01-21T12:44:03.033Z,2.72
2019-01-21T12:45:02.847Z,2.69
2019-01-21T12:46:02.834Z,2.63
2019-01-21T12:47:02.763Z,2.56
2019-01-21T12:48:02.709Z,2.52
2019-01-21T12:49:02.706Z,2.48
2019-01-21T12:50:02.648Z,2.52
2019-01-21T12:51:02.581Z,2.41
2019-01-21T12:52:02.595Z,2.23
2019-01-21T12:53:02.520Z,2.16
2019-01-21T12:54:02.504Z,2.10
2019-01-21T12:55:02.428Z,2.06
2019-01-21T12:56:02.489Z,2.05
2019-01-21T12:57:02.388Z,2.06
2019-01-21T12:58:02.297Z,1.88
2019-01-21T12:59:02.258Z,1.90
2019-01-21T13:00:02.201Z,1.90
2019-01-21T13:01:02.178Z,1.93